createdAt,value
2022-11-15T00:00:18.204Z,15.10
2022-11-15T00:03:03.008Z,15.20
2022-11-15T00:05:48.860Z,16.20
2022-11-15T00:08:33.708Z,15.60
2022-11-15T00:11:18.794Z,15.10
2022-11-15T00:14:03.701Z,15.70
2022-11-15T00:16:48.470Z,17.10
2022-11-15T00:19:33.744Z,15.20
2022-11-15T00:22:18.542Z,15.70
2022-11-15T00:25:04.044Z,17.20
2022-11-15T00:27:48.666Z,17.70
2022-11-15T00:30:33.560Z,17.40
2022-11-15T00:33:18.102Z,17.80
2022-11-15T00:36:05.570Z,17.20
2022-11-15T00:38:50.109Z,17.80
2022-11-15T00:41:35.048Z,18.10
2022-11-15T00:44:19.618Z,17.40
2022-11-15T00:47:04.373Z,18.50
2022-11-15T00:49:48.989Z,18.70
2022-11-15T00:52:33.583Z,18.40
2022-11-15T00:55:19.487Z,17.70
2022-11-15T00:58:04.360Z,17.90
2022-11-15T01:00:49.089Z,18.80
2022-11-15T01:03:34.856Z,19.60
2022-11-15T01:06:19.913Z,20.50
2022-11-15T01:09:04.665Z,21.00
2022-11-15T01:11:49.342Z,19.00
2022-11-15T01:14:34.264Z,18.60
2022-11-15T01:17:18.939Z,19.50
2022-11-15T01:20:04.297Z,21.50
2022-11-15T01:22:49.176Z,20.60
2022-11-15T01:25:34.005Z,23.60
2022-11-15T01:28:18.852Z,23.10
2022-11-15T01:31:06.646Z,22.50
2022-11-15T01:33:51.368Z,22.00
2022-11-15T01:36:35.801Z,22.50
2022-11-15T01:39:20.867Z,23.10
2022-11-15T01:42:05.431Z,23.90
2022-11-15T01:44:52.218Z,21.70
2022-11-15T01:50:30.765Z,23.60
2022-11-15T01:53:16.556Z,23.90
2022-11-15T01:56:07.018Z,24.00
2022-11-15T01:58:56.100Z,26.30
2022-11-15T02:01:41.124Z,23.40
2022-11-15T02:04:34.445Z,23.10
2022-11-15T02:07:22.192Z,24.20
2022-11-15T02:10:14.402Z,24.00
2022-11-15T02:13:01.061Z,25.40
2022-11-15T02:19:27.171Z,26.00
2022-11-15T02:22:46.473Z,23.10
2022-11-15T02:25:57.523Z,23.60
2022-11-15T02:29:10.752Z,23.50
2022-11-15T02:32:16.178Z,24.00
2022-11-15T02:35:20.344Z,23.60
2022-11-15T02:38:36.368Z,23.50
2022-11-15T02:41:32.041Z,24.20
2022-11-15T02:44:30.897Z,23.20
2022-11-15T02:47:18.114Z,22.70
2022-11-15T02:52:50.220Z,24.00
2022-11-15T02:55:36.684Z,25.60
2022-11-15T02:58:49.094Z,23.30
2022-11-15T03:01:42.776Z,23.30
2022-11-15T03:04:49.034Z,25.20
2022-11-15T03:07:46.267Z,26.50
2022-11-15T03:10:43.093Z,25.60
2022-11-15T03:13:50.826Z,27.40
2022-11-15T03:16:40.221Z,26.60
2022-11-15T03:19:48.411Z,26.40
2022-11-15T03:22:41.124Z,27.10
2022-11-15T03:25:29.124Z,27.40
2022-11-15T03:28:21.072Z,28.10
2022-11-15T03:31:27.637Z,27.30
2022-11-15T03:34:36.449Z,27.70
2022-11-15T03:37:25.256Z,27.30
2022-11-15T03:40:11.146Z,28.70
2022-11-15T03:43:06.358Z,27.80
2022-11-15T03:46:05.916Z,30.40
2022-11-15T03:48:55.283Z,28.80
2022-11-15T03:51:40.816Z,28.70
2022-11-15T03:54:25.570Z,27.50
2022-11-15T03:57:10.162Z,27.10
2022-11-15T03:59:54.995Z,30.10
2022-11-15T04:02:39.692Z,30.40
2022-11-15T04:05:25.130Z,30.50
2022-11-15T04:08:09.575Z,29.10
2022-11-15T04:10:54.177Z,28.30
2022-11-15T04:13:38.957Z,30.40
2022-11-15T04:16:23.484Z,29.60
2022-11-15T04:19:26.903Z,30.70
2022-11-15T04:22:30.226Z,29.20
2022-11-15T04:25:18.405Z,29.40
2022-11-15T04:28:05.598Z,28.00
2022-11-15T04:30:50.041Z,29.90
2022-11-15T04:33:35.110Z,28.70
2022-11-15T04:36:39.904Z,28.40
2022-11-15T04:39:24.372Z,30.10
2022-11-15T04:42:10.421Z,28.80
2022-11-15T04:44:56.329Z,28.50
2022-11-15T04:47:44.371Z,27.20
2022-11-15T04:50:29.182Z,28.40
2022-11-15T04:53:14.008Z,30.00
2022-11-15T04:55:58.661Z,27.90
2022-11-15T04:58:43.468Z,27.90
2022-11-15T05:01:27.964Z,29.10
2022-11-15T05:04:21.839Z,26.90
2022-11-15T05:07:06.708Z,27.60
2022-11-15T05:09:51.303Z,26.40
2022-11-15T05:12:36.204Z,28.70
2022-11-15T05:15:20.989Z,28.70
2022-11-15T05:18:05.709Z,28.50
2022-11-15T05:20:50.208Z,30.10
2022-11-15T05:23:35.039Z,27.50
2022-11-15T05:26:19.879Z,26.80
2022-11-15T05:29:04.849Z,27.90
2022-11-15T05:31:49.868Z,28.80
2022-11-15T05:34:34.509Z,27.40
2022-11-15T05:37:19.257Z,27.20
2022-11-15T05:40:04.326Z,30.00
2022-11-15T05:42:49.013Z,30.20
2022-11-15T05:45:35.294Z,28.70
2022-11-15T05:48:20.327Z,27.10
2022-11-15T05:51:07.315Z,27.70
2022-11-15T05:53:53.731Z,29.30
2022-11-15T05:59:24.365Z,27.80
2022-11-15T06:02:09.488Z,24.70
2022-11-15T06:04:54.187Z,26.70
2022-11-15T06:07:39.023Z,27.10
2022-11-15T06:10:23.548Z,27.40
2022-11-15T06:13:08.098Z,27.60
2022-11-15T06:15:57.033Z,28.80
2022-11-15T06:18:41.638Z,26.80
2022-11-15T06:21:28.331Z,25.00
2022-11-15T06:24:13.103Z,25.90
2022-11-15T06:26:58.054Z,23.60
2022-11-15T06:29:42.855Z,24.60
2022-11-15T06:32:31.062Z,22.70
2022-11-15T06:35:15.954Z,22.50
2022-11-15T06:42:28.445Z,23.30
2022-11-15T06:45:13.502Z,22.90
2022-11-15T06:47:59.276Z,26.60
2022-11-15T06:50:51.204Z,25.30
2022-11-15T06:53:36.101Z,26.10
2022-11-15T06:56:21.126Z,23.30
2022-11-15T06:59:05.888Z,22.40
2022-11-15T07:01:50.590Z,23.90
2022-11-15T07:13:43.128Z,23.00
2022-11-15T07:39:01.314Z,19.60
2022-11-15T07:46:14.225Z,22.50
2022-11-15T07:48:58.947Z,21.50
2022-11-15T07:56:08.003Z,18.50
2022-11-15T07:58:52.853Z,20.90
2022-11-15T08:05:14.802Z,20.30
2022-11-15T08:12:32.309Z,19.50
2022-11-15T08:28:39.405Z,22.10
2022-11-15T08:40:14.225Z,20.80
2022-11-15T08:43:02.750Z,21.10
2022-11-15T08:45:47.688Z,22.10
2022-11-15T08:57:30.831Z,23.30
2022-11-15T09:09:10.134Z,21.20
2022-11-15T09:16:22.362Z,21.50
2022-11-15T09:28:06.979Z,21.60
2022-11-15T09:44:25.701Z,21.70
2022-11-15T09:47:19.957Z,21.90
2022-11-15T09:59:08.266Z,19.90
2022-11-15T10:06:04.571Z,22.00
2022-11-15T10:08:49.123Z,22.50
2022-11-15T10:11:38.593Z,19.70
2022-11-15T10:14:19.309Z,21.00
2022-11-15T10:17:00.753Z,22.40
2022-11-15T10:19:36.403Z,21.80
2022-11-15T10:22:14.725Z,22.70
2022-11-15T10:33:36.394Z,22.70
2022-11-15T10:36:08.597Z,22.00
2022-11-15T10:38:50.054Z,23.20
2022-11-15T10:45:53.283Z,21.60
2022-11-15T10:48:22.881Z,23.70
2022-11-15T10:50:50.992Z,25.20
2022-11-15T10:53:31.201Z,24.80
2022-11-15T11:00:21.281Z,24.10
2022-11-15T11:07:22.352Z,23.90
2022-11-15T11:19:01.996Z,25.30
2022-11-15T11:34:50.602Z,26.70
2022-11-15T11:37:58.569Z,29.40
2022-11-15T11:44:53.461Z,26.30
2022-11-15T11:56:20.182Z,27.60
2022-11-15T11:58:48.263Z,27.30
2022-11-15T12:01:44.041Z,26.70
2022-11-15T12:08:53.803Z,26.30
2022-11-15T12:15:57.185Z,29.80
2022-11-15T12:22:47.859Z,26.50
2022-11-15T12:25:26.032Z,25.30
2022-11-15T12:32:31.094Z,28.30
2022-11-15T12:39:18.263Z,27.90
2022-11-15T12:55:41.077Z,27.90
2022-11-15T12:58:28.846Z,28.70
2022-11-15T13:05:19.807Z,25.50
2022-11-15T13:12:28.010Z,26.10
2022-11-15T13:14:59.282Z,26.60
2022-11-15T13:17:35.016Z,29.80
2022-11-15T13:20:12.194Z,28.00
2022-11-15T13:23:02.355Z,27.10
2022-11-15T13:26:00.461Z,28.80
2022-11-15T13:28:32.173Z,29.20
2022-11-15T13:31:19.272Z,31.60
2022-11-15T13:38:29.045Z,29.30
2022-11-15T13:54:48.765Z,31.00
2022-11-15T14:01:23.517Z,28.30
2022-11-15T14:04:00.655Z,29.50
2022-11-15T14:06:30.213Z,27.90
2022-11-15T14:09:17.355Z,29.50
2022-11-15T14:11:54.374Z,29.30
2022-11-15T14:18:53.437Z,25.70
2022-11-15T14:25:56.929Z,29.30
2022-11-15T14:28:22.876Z,28.40
2022-11-15T14:30:51.276Z,29.80
2022-11-15T14:33:20.419Z,30.20
2022-11-15T14:36:54.568Z,29.80
2022-11-15T14:39:20.541Z,28.50
2022-11-15T14:41:46.558Z,26.60
2022-11-15T14:45:15.261Z,29.90
2022-11-15T14:51:59.564Z,31.20
2022-11-15T14:54:25.526Z,27.90
2022-11-15T14:56:51.558Z,27.20
2022-11-15T14:59:17.660Z,27.10
2022-11-15T15:01:43.653Z,26.10
2022-11-15T15:04:11.110Z,26.60
2022-11-15T15:06:37.207Z,25.30
2022-11-15T15:09:04.042Z,26.30
2022-11-15T15:11:32.289Z,29.20
2022-11-15T15:14:00.833Z,26.80
2022-11-15T15:16:27.450Z,27.20
2022-11-15T15:18:53.596Z,28.90
2022-11-15T15:21:25.484Z,28.60
2022-11-15T15:23:54.463Z,29.10
2022-11-15T15:26:21.511Z,31.70
2022-11-15T15:28:49.096Z,30.00
2022-11-15T15:31:15.141Z,30.20
2022-11-15T15:33:41.273Z,28.00
2022-11-15T15:36:14.754Z,28.00
2022-11-15T15:38:41.773Z,27.90
2022-11-15T15:41:12.075Z,29.90
2022-11-15T15:43:38.236Z,29.80
2022-11-15T15:46:05.080Z,30.40
2022-11-15T15:48:31.394Z,29.00
2022-11-15T15:50:57.584Z,30.90
2022-11-15T15:53:23.607Z,30.00
2022-11-15T15:55:49.820Z,31.80
2022-11-15T15:58:15.932Z,31.90
2022-11-15T16:00:41.946Z,32.70
2022-11-15T16:03:07.934Z,33.30
2022-11-15T16:05:33.884Z,30.10
2022-11-15T16:07:59.977Z,32.10
2022-11-15T16:10:29.264Z,31.60
2022-11-15T16:12:56.567Z,33.30
2022-11-15T16:15:24.348Z,34.70
2022-11-15T16:17:52.912Z,32.20
2022-11-15T16:20:50.425Z,33.10
2022-11-15T16:23:23.948Z,31.40
2022-11-15T16:25:52.926Z,30.20
2022-11-15T16:28:24.400Z,30.70
2022-11-15T16:31:00.700Z,30.90
2022-11-15T16:33:26.995Z,30.20
2022-11-15T16:35:52.978Z,30.90
2022-11-15T16:38:18.972Z,32.10
2022-11-15T16:40:45.264Z,28.50
2022-11-15T16:43:11.466Z,28.30
2022-11-15T16:45:37.475Z,27.10
2022-11-15T16:48:03.936Z,28.80
2022-11-15T16:50:34.547Z,28.90
2022-11-15T16:53:01.003Z,29.50
2022-11-15T16:55:29.628Z,30.60
2022-11-15T16:58:00.821Z,30.70
2022-11-15T17:00:27.079Z,30.30
2022-11-15T17:02:53.591Z,31.50
2022-11-15T17:05:23.285Z,31.30
2022-11-15T17:07:53.891Z,30.70
2022-11-15T17:10:24.722Z,28.20
2022-11-15T17:12:51.906Z,29.00
2022-11-15T17:15:18.503Z,28.20
2022-11-15T17:17:44.932Z,27.70
2022-11-15T17:20:15.410Z,26.60
2022-11-15T17:22:41.687Z,26.90
2022-11-15T17:25:08.056Z,25.50
2022-11-15T17:27:34.412Z,24.40
2022-11-15T17:30:00.573Z,23.30
2022-11-15T17:32:26.485Z,23.60
2022-11-15T17:34:52.509Z,22.90
2022-11-15T17:37:18.569Z,23.90
2022-11-15T17:39:44.790Z,22.30
2022-11-15T17:42:10.800Z,23.70
2022-11-15T17:44:36.741Z,25.20
2022-11-15T17:47:02.696Z,23.70
2022-11-15T17:49:28.666Z,21.30
2022-11-15T17:51:54.747Z,23.90
2022-11-15T17:54:20.784Z,22.60
2022-11-15T17:56:46.739Z,23.90
2022-11-15T17:59:15.970Z,23.40
2022-11-15T18:01:44.676Z,22.10
2022-11-15T18:04:10.898Z,23.90
2022-11-15T18:06:37.451Z,22.30
2022-11-15T18:09:04.307Z,22.50
2022-11-15T18:11:32.985Z,23.10
2022-11-15T18:14:01.628Z,21.10
2022-11-15T18:16:30.505Z,22.80
2022-11-15T18:18:57.441Z,23.20
2022-11-15T18:21:26.404Z,21.90
2022-11-15T18:23:54.774Z,22.00
2022-11-15T18:26:26.635Z,22.10
2022-11-15T18:28:55.116Z,22.70
2022-11-15T18:31:24.047Z,22.50
2022-11-15T18:33:51.110Z,24.10
2022-11-15T18:36:23.827Z,23.60
2022-11-15T18:39:04.317Z,22.40
2022-11-15T18:41:32.155Z,21.10
2022-11-15T18:44:01.119Z,20.00
2022-11-15T18:46:30.773Z,18.90
2022-11-15T18:48:59.288Z,17.70
2022-11-15T18:51:29.621Z,18.70
2022-11-15T18:53:59.356Z,18.40
2022-11-15T18:56:27.064Z,18.70
2022-11-15T18:58:55.743Z,18.80
2022-11-15T19:01:24.622Z,19.10
2022-11-15T19:03:54.121Z,19.30
2022-11-15T19:06:28.974Z,19.20
2022-11-15T19:08:57.379Z,20.30
2022-11-15T19:11:28.284Z,20.10
2022-11-15T19:13:56.132Z,18.50
2022-11-15T19:16:23.301Z,19.60
2022-11-15T19:19:00.078Z,19.20
2022-11-15T19:21:27.156Z,20.00
2022-11-15T19:23:53.716Z,20.00
2022-11-15T19:26:24.060Z,15.90
2022-11-15T19:28:55.364Z,17.50
2022-11-15T19:31:23.336Z,17.80
2022-11-15T19:33:50.528Z,16.50
2022-11-15T19:36:22.661Z,16.00
2022-11-15T19:38:49.173Z,16.00
2022-11-15T19:41:17.564Z,15.10
2022-11-15T19:43:44.110Z,15.00
2022-11-15T19:46:11.780Z,16.10
2022-11-15T19:48:38.362Z,15.80
2022-11-15T19:51:07.337Z,14.20
2022-11-15T19:53:35.397Z,14.60
2022-11-15T19:56:05.071Z,15.30
2022-11-15T19:58:31.404Z,13.80
2022-11-15T20:01:05.202Z,15.20
2022-11-15T20:03:32.988Z,14.50
2022-11-15T20:06:11.187Z,14.80
2022-11-15T20:08:37.928Z,16.20
2022-11-15T20:11:04.888Z,14.00
2022-11-15T20:13:31.543Z,14.50
2022-11-15T20:15:58.235Z,14.80
2022-11-15T20:18:26.601Z,15.40
2022-11-15T20:20:55.926Z,17.50
2022-11-15T20:23:22.176Z,17.40
2022-11-15T20:25:48.962Z,16.30
2022-11-15T20:28:18.027Z,18.00
2022-11-15T20:30:45.275Z,13.70
2022-11-15T20:33:12.338Z,16.00
2022-11-15T20:35:38.290Z,15.30
2022-11-15T20:38:06.531Z,15.00
2022-11-15T20:40:32.699Z,15.20
2022-11-15T20:42:58.734Z,14.50
2022-11-15T20:45:24.848Z,16.20
2022-11-15T20:47:54.615Z,15.00
2022-11-15T20:50:40.969Z,15.50
2022-11-15T20:53:07.258Z,15.90
2022-11-15T20:55:33.663Z,15.20
2022-11-15T20:57:59.590Z,14.10
2022-11-15T21:00:25.660Z,14.00
2022-11-15T21:02:52.543Z,14.20
2022-11-15T21:05:18.685Z,13.70
2022-11-15T21:07:44.867Z,14.50
2022-11-15T21:10:29.533Z,13.90
2022-11-15T21:12:55.558Z,13.30
2022-11-15T21:15:21.812Z,14.30
2022-11-15T21:17:47.752Z,14.20
2022-11-15T21:20:16.484Z,13.70
2022-11-15T21:22:42.537Z,14.70
2022-11-15T21:25:08.999Z,14.60
2022-11-15T21:27:35.078Z,14.60
2022-11-15T21:30:01.316Z,13.50
2022-11-15T21:32:28.554Z,11.60
2022-11-15T21:34:54.688Z,10.70
2022-11-15T21:37:20.720Z,11.40
2022-11-15T21:39:46.937Z,10.50
2022-11-15T21:42:12.958Z,10.10
2022-11-15T21:44:39.046Z,9.60
2022-11-15T21:47:06.032Z,9.90
2022-11-15T21:49:32.119Z,9.40
2022-11-15T21:51:58.135Z,8.70
2022-11-15T21:54:24.205Z,9.70
2022-11-15T21:56:50.169Z,10.00
2022-11-15T21:59:16.194Z,9.60
2022-11-15T22:02:00.819Z,9.80
2022-11-15T22:04:26.875Z,11.00
2022-11-15T22:06:52.910Z,10.40
2022-11-15T22:09:19.014Z,10.50
2022-11-15T22:11:45.253Z,9.70
2022-11-15T22:14:11.662Z,10.70
2022-11-15T22:16:38.886Z,11.00
2022-11-15T22:19:04.981Z,11.20
2022-11-15T22:21:30.968Z,12.10
2022-11-15T22:23:58.161Z,11.80
2022-11-15T22:26:24.344Z,12.80
2022-11-15T22:28:51.212Z,12.90
2022-11-15T22:31:17.360Z,12.50
2022-11-15T22:33:43.426Z,12.00
2022-11-15T22:36:11.821Z,13.70
2022-11-15T22:38:37.932Z,11.10
2022-11-15T22:43:30.199Z,13.10
2022-11-15T22:45:58.767Z,13.30
2022-11-15T22:48:31.008Z,13.20
2022-11-15T22:50:57.833Z,12.90
2022-11-15T22:53:24.887Z,14.00
2022-11-15T22:55:52.625Z,15.00
2022-11-15T22:58:19.712Z,15.50
2022-11-15T23:00:48.666Z,15.20
2022-11-15T23:03:16.179Z,15.20
2022-11-15T23:05:42.292Z,15.10
2022-11-15T23:08:08.271Z,15.00
2022-11-15T23:10:52.810Z,15.40
2022-11-15T23:13:18.906Z,15.20
2022-11-15T23:16:07.389Z,14.70
2022-11-15T23:18:42.327Z,15.50
2022-11-15T23:21:13.970Z,17.40
2022-11-15T23:23:40.406Z,15.70
2022-11-15T23:26:07.451Z,15.50
2022-11-15T23:28:34.824Z,16.90
2022-11-15T23:31:24.855Z,15.80
2022-11-15T23:33:56.733Z,15.20
2022-11-15T23:36:23.505Z,15.90
2022-11-15T23:38:49.544Z,16.70
2022-11-15T23:41:15.705Z,16.90
2022-11-15T23:43:41.905Z,17.90
2022-11-15T23:46:07.969Z,17.10
2022-11-15T23:48:34.625Z,17.00
2022-11-15T23:51:00.941Z,15.80
2022-11-15T23:53:27.050Z,16.00
2022-11-15T23:55:58.935Z,15.00
2022-11-15T23:58:25.164Z,16.10
